Time;durP1;ratioP1;P1;durP2;ratioP2;P2;SDS_P1;SDS_P2;PMS_P1;PMS_P2;Temp;Humidity;BMP_temperature;BMP_pressure;BME280_temperature;BME280_humidity;BME280_pressure;Samples;Min_cycle;Max_cycle;Signal;HPM_P1;HPM_P2
2023/05/28 00:00:02;;;;;;;58.90;10.50;;;;;;;;;;5026409;28;20056;-63
2023/05/28 00:02:40;;;;;;;52.85;11.75;;;;;;;;;;5004023;28;20045;-63
2023/05/28 00:05:10;;;;;;;68.22;11.50;;;;;;;;;;5051183;28;20045;-63
2023/05/28 00:07:41;;;;;;;50.10;12.27;;;;;;;;;;5051034;28;20041;-63
2023/05/28 00:10:12;;;;;;;61.40;11.90;;;;;;;;;;5032664;28;20045;-64
2023/05/28 00:12:42;;;;;;;60.28;11.88;;;;;;;;;;5052381;28;20055;-64
2023/05/28 00:15:12;;;;;;;67.32;10.52;;;;;;;;;;5036455;28;20048;-64
2023/05/28 00:17:42;;;;;;;61.75;10.93;;;;;;;;;;5055040;28;20041;-63
2023/05/28 00:20:12;;;;;;;91.30;11.82;;;;;;;;;;5036523;28;20060;-63
2023/05/28 00:22:44;;;;;;;47.47;10.90;;;;;;;;;;5055299;28;20052;-63
2023/05/28 00:25:34;;;;;;;48.50;10.70;;;;;;;;;;5032845;28;20441;-62
2023/05/28 00:28:24;;;;;;;45.47;10.73;;;;;;;;;;5032509;28;20049;-62
2023/05/28 00:30:55;;;;;;;43.05;10.57;;;;;;;;;;5012319;28;20046;-62
2023/05/28 00:33:25;;;;;;;48.15;9.60;;;;;;;;;;4992797;28;20066;-63
2023/05/28 00:35:56;;;;;;;60.33;10.05;;;;;;;;;;4943748;28;20055;-62
2023/05/28 00:38:26;;;;;;;62.65;9.07;;;;;;;;;;4973215;28;20055;-63
2023/05/28 00:40:57;;;;;;;57.95;10.55;;;;;;;;;;4925327;28;20545;-64
2023/05/28 00:43:27;;;;;;;63.78;11.90;;;;;;;;;;4953916;28;20059;-64
2023/05/28 00:46:21;;;;;;;94.72;16.58;;;;;;;;;;4954163;28;20058;-64
2023/05/28 00:48:51;;;;;;;59.65;10.82;;;;;;;;;;4922523;28;20442;-63
2023/05/28 00:51:22;;;;;;;71.85;13.32;;;;;;;;;;4953841;28;20059;-63
2023/05/28 00:53:52;;;;;;;30.58;7.10;;;;;;;;;;4894408;29;20518;-62
2023/05/28 00:56:26;;;;;;;32.75;9.38;;;;;;;;;;4915325;29;20048;-62
2023/05/28 00:59:01;;;;;;;20.23;6.45;;;;;;;;;;4915389;29;20068;-60
2023/05/28 01:01:32;;;;;;;21.48;6.35;;;;;;;;;;4884059;29;20068;-62
2023/05/28 01:04:04;;;;;;;26.35;6.43;;;;;;;;;;4899774;29;20056;-63
2023/05/28 01:06:45;;;;;;;30.70;7.07;;;;;;;;;;4896373;29;20059;-62
2023/05/28 01:09:16;;;;;;;30.25;7.80;;;;;;;;;;4883960;29;20065;-62
2023/05/28 01:11:51;;;;;;;21.17;7.20;;;;;;;;;;4911192;29;20075;-62
2023/05/28 01:14:22;;;;;;;23.65;9.40;;;;;;;;;;4961703;28;20055;-63
2023/05/28 01:16:52;;;;;;;21.20;7.13;;;;;;;;;;4957018;28;20423;-63
2023/05/28 01:19:27;;;;;;;23.60;7.75;;;;;;;;;;4972539;28;20070;-62
2023/05/28 01:22:05;;;;;;;22.13;8.90;;;;;;;;;;4973429;28;20065;-62
2023/05/28 01:24:39;;;;;;;33.30;10.52;;;;;;;;;;5006775;28;20060;-63
2023/05/28 01:27:09;;;;;;;28.77;9.10;;;;;;;;;;5011564;28;20054;-62
2023/05/28 01:29:40;;;;;;;32.13;10.00;;;;;;;;;;4975547;28;20086;-62
2023/05/28 01:32:10;;;;;;;24.00;7.78;;;;;;;;;;4957498;28;20047;-63
2023/05/28 01:34:40;;;;;;;24.50;8.45;;;;;;;;;;4968215;28;20055;-62
2023/05/28 01:37:16;;;;;;;17.55;6.10;;;;;;;;;;4972083;28;20066;-62
2023/05/28 01:39:49;;;;;;;21.33;6.95;;;;;;;;;;4940118;28;20060;-62
2023/05/28 01:42:21;;;;;;;27.38;9.38;;;;;;;;;;4972306;28;20051;-63
2023/05/28 01:45:06;;;;;;;14.82;5.20;;;;;;;;;;4933239;29;20508;-61
2023/05/28 01:47:40;;;;;;;13.63;5.88;;;;;;;;;;4933265;29;20436;-62
2023/05/28 01:50:11;;;;;;;22.48;7.10;;;;;;;;;;4947217;28;20051;-62
2023/05/28 01:52:41;;;;;;;26.13;8.48;;;;;;;;;;4972231;28;20162;-62
2023/05/28 01:55:13;;;;;;;28.55;8.98;;;;;;;;;;4937651;29;20129;-62
2023/05/28 01:57:45;;;;;;;29.90;9.35;;;;;;;;;;4948375;28;20096;-63
2023/05/28 02:00:15;;;;;;;28.35;8.73;;;;;;;;;;4914600;29;20101;-63
2023/05/28 02:02:45;;;;;;;24.27;8.88;;;;;;;;;;4867475;29;20060;-62
2023/05/28 02:05:18;;;;;;;27.13;7.82;;;;;;;;;;4914324;29;20056;-63
2023/05/28 02:07:49;;;;;;;20.52;6.18;;;;;;;;;;4869467;29;20053;-63
2023/05/28 02:10:19;;;;;;;30.65;8.77;;;;;;;;;;4845228;29;20058;-62
2023/05/28 02:12:49;;;;;;;24.60;8.00;;;;;;;;;;4855067;29;20174;-63
2023/05/28 02:15:21;;;;;;;24.83;8.15;;;;;;;;;;4839982;29;20506;-63
2023/05/28 02:17:51;;;;;;;24.92;7.25;;;;;;;;;;4857887;29;20056;-62
2023/05/28 02:20:21;;;;;;;16.17;6.10;;;;;;;;;;4895226;29;20052;-62
2023/05/28 02:22:51;;;;;;;16.67;6.68;;;;;;;;;;4816802;29;20050;-62
2023/05/28 02:25:22;;;;;;;21.85;6.72;;;;;;;;;;4824033;29;20061;-63
2023/05/28 02:27:52;;;;;;;19.33;6.97;;;;;;;;;;4839386;29;20550;-64
2023/05/28 02:30:23;;;;;;;17.75;6.35;;;;;;;;;;4854270;29;20654;-63
2023/05/28 02:32:54;;;;;;;17.08;5.88;;;;;;;;;;4811718;29;20066;-61
2023/05/28 02:35:25;;;;;;;20.95;6.30;;;;;;;;;;4805255;29;20127;-62
2023/05/28 02:37:57;;;;;;;11.02;5.50;;;;;;;;;;4829401;29;20058;-63
2023/05/28 02:40:28;;;;;;;9.02;4.32;;;;;;;;;;4857511;29;20060;-63
2023/05/28 02:42:58;;;;;;;12.40;5.25;;;;;;;;;;4811582;29;20098;-64
2023/05/28 02:45:28;;;;;;;11.23;4.65;;;;;;;;;;4828664;29;20554;-63
2023/05/28 02:47:59;;;;;;;10.20;4.95;;;;;;;;;;4847559;29;20080;-62
2023/05/28 02:50:29;;;;;;;14.85;5.00;;;;;;;;;;4875789;29;20058;-63
2023/05/28 02:53:34;;;;;;;10.77;5.00;;;;;;;;;;4876118;29;20053;-62
2023/05/28 02:56:05;;;;;;;12.73;4.75;;;;;;;;;;4818288;29;20054;-63
2023/05/28 02:58:39;;;;;;;12.45;4.68;;;;;;;;;;4843271;29;20046;-63
2023/05/28 03:01:10;;;;;;;10.32;4.75;;;;;;;;;;4829111;29;20051;-63
2023/05/28 03:03:40;;;;;;;9.98;4.82;;;;;;;;;;4834419;29;20501;-63
2023/05/28 03:06:11;;;;;;;16.13;5.50;;;;;;;;;;4853975;29;20457;-63
2023/05/28 03:08:47;;;;;;;10.88;4.75;;;;;;;;;;4856637;29;20399;-63
2023/05/28 03:11:17;;;;;;;9.70;4.40;;;;;;;;;;4846052;29;20065;-63
2023/05/28 03:13:48;;;;;;;11.73;5.30;;;;;;;;;;4838808;29;20062;-62
2023/05/28 03:16:19;;;;;;;11.73;4.95;;;;;;;;;;4842659;29;20121;-63
2023/05/28 03:18:49;;;;;;;10.27;4.45;;;;;;;;;;4857102;29;20045;-63
2023/05/28 03:21:19;;;;;;;8.73;4.88;;;;;;;;;;4842023;29;20053;-63
2023/05/28 03:23:50;;;;;;;8.38;4.28;;;;;;;;;;4773085;30;20052;-64
2023/05/28 03:26:37;;;;;;;17.73;6.70;;;;;;;;;;4834026;29;20042;-63
2023/05/28 03:29:07;;;;;;;10.80;5.60;;;;;;;;;;4838214;29;20124;-63
2023/05/28 03:31:49;;;;;;;11.18;5.65;;;;;;;;;;4833129;29;20096;-64
2023/05/28 03:34:23;;;;;;;8.80;4.03;;;;;;;;;;4870329;29;20053;-63
2023/05/28 03:36:53;;;;;;;12.70;4.60;;;;;;;;;;4848312;29;20068;-64
2023/05/28 03:39:24;;;;;;;14.32;4.93;;;;;;;;;;4875361;29;20060;-63
2023/05/28 03:41:54;;;;;;;11.40;5.15;;;;;;;;;;4865849;29;20528;-63
2023/05/28 03:44:27;;;;;;;10.57;4.40;;;;;;;;;;4871436;29;20063;-63
2023/05/28 03:46:57;;;;;;;11.23;4.85;;;;;;;;;;4856285;29;20540;-63
2023/05/28 03:49:29;;;;;;;9.75;4.18;;;;;;;;;;4856598;29;20064;-62
2023/05/28 03:51:59;;;;;;;13.35;4.60;;;;;;;;;;4875144;29;20053;-63
2023/05/28 03:54:39;;;;;;;10.27;4.32;;;;;;;;;;4842343;29;20050;-64
2023/05/28 03:57:11;;;;;;;18.83;5.03;;;;;;;;;;4842261;29;20073;-65
2023/05/28 03:59:41;;;;;;;27.13;5.13;;;;;;;;;;4842449;29;20414;-63
2023/05/28 04:02:11;;;;;;;12.45;5.38;;;;;;;;;;4824963;29;20058;-63
2023/05/28 04:04:41;;;;;;;17.75;4.93;;;;;;;;;;4817110;29;20055;-63
2023/05/28 04:07:12;;;;;;;11.60;4.88;;;;;;;;;;4804861;29;20470;-63
2023/05/28 04:09:42;;;;;;;12.00;5.32;;;;;;;;;;4801732;29;20073;-63
2023/05/28 04:12:32;;;;;;;13.13;4.97;;;;;;;;;;4773436;30;20500;-63
2023/05/28 04:15:04;;;;;;;14.65;5.25;;;;;;;;;;4801469;29;20054;-63
2023/05/28 04:17:54;;;;;;;15.60;5.93;;;;;;;;;;4838335;29;20050;-64
2023/05/28 04:20:24;;;;;;;16.63;5.68;;;;;;;;;;4838107;29;20392;-63
2023/05/28 04:22:54;;;;;;;15.38;6.03;;;;;;;;;;4808272;29;20058;-63
2023/05/28 04:25:26;;;;;;;19.50;5.88;;;;;;;;;;4801626;29;20511;-63
2023/05/28 04:27:56;;;;;;;40.40;7.38;;;;;;;;;;4786590;29;20059;-64
2023/05/28 04:30:28;;;;;;;23.90;7.00;;;;;;;;;;4801339;29;20059;-63
2023/05/28 04:33:00;;;;;;;28.52;6.10;;;;;;;;;;4787718;29;20513;-63
2023/05/28 04:35:30;;;;;;;16.45;6.80;;;;;;;;;;4819765;29;20458;-63
2023/05/28 04:38:00;;;;;;;18.80;6.13;;;;;;;;;;4819659;29;20512;-63
2023/05/28 04:40:32;;;;;;;24.55;5.78;;;;;;;;;;4804543;29;20050;-64
2023/05/28 04:43:03;;;;;;;20.42;6.47;;;;;;;;;;4837991;29;20050;-64
2023/05/28 04:45:34;;;;;;;18.80;6.05;;;;;;;;;;4822868;29;20115;-63
2023/05/28 04:48:06;;;;;;;21.20;5.80;;;;;;;;;;4804849;29;20046;-64
2023/05/28 04:50:36;;;;;;;27.98;5.65;;;;;;;;;;4820911;29;20398;-64
2023/05/28 04:53:20;;;;;;;24.63;6.43;;;;;;;;;;4813043;29;20051;-63
2023/05/28 04:55:51;;;;;;;13.80;5.95;;;;;;;;;;4830599;29;20514;-64
2023/05/28 04:58:22;;;;;;;18.27;5.72;;;;;;;;;;4837039;29;20046;-64
2023/05/28 05:00:55;;;;;;;28.85;6.40;;;;;;;;;;4789330;29;20393;-64
2023/05/28 05:03:27;;;;;;;18.90;6.25;;;;;;;;;;4809540;29;20051;-63
2023/05/28 05:05:57;;;;;;;18.42;6.55;;;;;;;;;;4804200;29;20062;-63
2023/05/28 05:08:27;;;;;;;23.55;6.43;;;;;;;;;;4804369;29;20539;-63
2023/05/28 05:10:58;;;;;;;14.68;6.00;;;;;;;;;;4804553;29;20579;-63
2023/05/28 05:13:28;;;;;;;15.43;6.85;;;;;;;;;;4804561;29;20055;-65
2023/05/28 05:15:58;;;;;;;23.55;7.15;;;;;;;;;;4804523;29;20063;-63
2023/05/28 05:18:29;;;;;;;14.23;6.40;;;;;;;;;;4804303;29;20070;-63
2023/05/28 05:21:00;;;;;;;15.20;6.32;;;;;;;;;;4793411;29;20504;-63
2023/05/28 05:23:30;;;;;;;17.00;7.03;;;;;;;;;;4804177;29;20081;-63
2023/05/28 05:26:00;;;;;;;14.95;6.47;;;;;;;;;;4793165;29;20051;-64
2023/05/28 05:28:32;;;;;;;18.98;7.10;;;;;;;;;;4785948;30;20504;-63
2023/05/28 05:31:03;;;;;;;18.02;6.68;;;;;;;;;;4768011;30;20059;-66
2023/05/28 05:33:33;;;;;;;14.02;6.40;;;;;;;;;;4768507;30;20068;-63
2023/05/28 05:36:18;;;;;;;17.10;6.38;;;;;;;;;;4778823;29;20067;-63
2023/05/28 05:39:00;;;;;;;16.15;6.97;;;;;;;;;;4804035;29;20055;-63
2023/05/28 05:41:36;;;;;;;18.95;7.80;;;;;;;;;;4789348;29;20057;-64
2023/05/28 05:44:13;;;;;;;17.63;6.38;;;;;;;;;;4808830;29;20215;-63
2023/05/28 05:46:43;;;;;;;20.85;7.65;;;;;;;;;;4803765;29;20070;-63
2023/05/28 05:49:14;;;;;;;22.75;7.53;;;;;;;;;;4808682;29;20829;-64
2023/05/28 05:51:45;;;;;;;24.52;8.00;;;;;;;;;;4853369;29;20057;-63
2023/05/28 05:54:16;;;;;;;25.95;7.95;;;;;;;;;;4877118;29;20057;-63
2023/05/28 05:56:46;;;;;;;24.42;6.70;;;;;;;;;;4876873;29;20049;-63
2023/05/28 05:59:16;;;;;;;25.17;8.20;;;;;;;;;;4895696;29;20045;-63
2023/05/28 06:01:48;;;;;;;20.83;7.13;;;;;;;;;;4855406;29;20529;-64
2023/05/28 06:04:18;;;;;;;21.58;7.40;;;;;;;;;;4862942;29;20541;-63
2023/05/28 06:07:11;;;;;;;16.58;6.60;;;;;;;;;;4860241;29;20481;-63
2023/05/28 06:09:50;;;;;;;22.35;7.15;;;;;;;;;;4859965;29;20053;-63
2023/05/28 06:12:25;;;;;;;22.52;7.03;;;;;;;;;;4863071;29;20061;-63
2023/05/28 06:14:56;;;;;;;26.25;8.02;;;;;;;;;;4851047;29;20062;-63
2023/05/28 06:17:27;;;;;;;27.80;8.73;;;;;;;;;;4869536;29;20058;-63
2023/05/28 06:19:59;;;;;;;29.98;9.35;;;;;;;;;;4840007;29;20066;-63
2023/05/28 06:22:31;;;;;;;32.42;9.10;;;;;;;;;;4864235;29;20164;-64
2023/05/28 06:25:03;;;;;;;29.52;9.10;;;;;;;;;;4895056;29;20059;-63
2023/05/28 06:27:33;;;;;;;24.48;7.78;;;;;;;;;;4866667;29;20406;-64
2023/05/28 06:30:04;;;;;;;21.70;7.75;;;;;;;;;;4880675;29;20406;-63
2023/05/28 06:32:35;;;;;;;18.17;7.30;;;;;;;;;;4876166;29;20049;-63
2023/05/28 06:35:06;;;;;;;23.20;8.30;;;;;;;;;;4871454;29;20060;-64
2023/05/28 06:37:36;;;;;;;18.95;7.40;;;;;;;;;;4842196;29;20221;-63
2023/05/28 06:40:10;;;;;;;19.00;6.82;;;;;;;;;;4839115;29;20510;-63
2023/05/28 06:42:40;;;;;;;16.98;5.82;;;;;;;;;;4868291;29;20061;-64
2023/05/28 06:45:20;;;;;;;15.50;6.25;;;;;;;;;;4807494;29;20054;-63
2023/05/28 06:47:51;;;;;;;17.17;6.32;;;;;;;;;;4839119;29;20458;-63
2023/05/28 06:50:35;;;;;;;10.18;4.30;;;;;;;;;;4846144;29;20058;-63
2023/05/28 06:53:07;;;;;;;9.43;4.45;;;;;;;;;;4831594;29;20581;-63
2023/05/28 06:55:37;;;;;;;13.15;5.50;;;;;;;;;;4834992;29;20114;-63
2023/05/28 06:58:35;;;;;;;9.35;5.03;;;;;;;;;;4850804;29;20140;-63
2023/05/28 07:01:34;;;;;;;7.22;3.70;;;;;;;;;;4858118;29;20053;-63
2023/05/28 07:04:30;;;;;;;11.05;4.10;;;;;;;;;;4857900;29;20557;-63
2023/05/28 07:07:07;;;;;;;10.15;4.00;;;;;;;;;;4843962;29;20059;-62
2023/05/28 07:09:53;;;;;;;10.48;4.13;;;;;;;;;;4792831;29;20428;-64
2023/05/28 07:12:25;;;;;;;6.30;3.10;;;;;;;;;;4813484;29;20062;-63
2023/05/28 07:14:59;;;;;;;7.75;2.78;;;;;;;;;;4806543;29;20055;-63
2023/05/28 07:17:32;;;;;;;10.15;3.50;;;;;;;;;;4821835;29;20051;-63
2023/05/28 07:20:05;;;;;;;5.22;2.80;;;;;;;;;;4838610;29;20531;-63
2023/05/28 07:22:50;;;;;;;7.53;2.97;;;;;;;;;;4892373;29;20056;-63
2023/05/28 07:25:21;;;;;;;5.10;2.60;;;;;;;;;;4837440;29;20387;-63
2023/05/28 07:27:52;;;;;;;7.93;4.03;;;;;;;;;;4856969;29;20057;-64
2023/05/28 07:30:35;;;;;;;8.25;3.95;;;;;;;;;;4819963;29;20061;-64
2023/05/28 07:33:18;;;;;;;11.50;4.38;;;;;;;;;;4811303;29;20063;-63
2023/05/28 07:36:03;;;;;;;11.23;4.78;;;;;;;;;;4782836;29;20068;-63
2023/05/28 07:38:34;;;;;;;9.77;4.25;;;;;;;;;;4736993;30;20060;-63
2023/05/28 07:41:05;;;;;;;11.30;4.32;;;;;;;;;;4732661;30;20056;-63
2023/05/28 07:43:57;;;;;;;10.98;4.18;;;;;;;;;;4765968;30;20056;-63
2023/05/28 07:46:29;;;;;;;11.30;4.95;;;;;;;;;;4801920;29;20063;-63
2023/05/28 07:49:17;;;;;;;7.97;3.95;;;;;;;;;;4762749;30;20075;-63
2023/05/28 07:51:48;;;;;;;8.57;4.63;;;;;;;;;;4786485;29;20058;-63
2023/05/28 07:54:22;;;;;;;10.02;4.50;;;;;;;;;;4769447;29;20068;-63
2023/05/28 07:56:53;;;;;;;11.35;3.92;;;;;;;;;;4760318;30;20084;-63
2023/05/28 07:59:36;;;;;;;8.05;3.75;;;;;;;;;;4765670;30;20073;-64
2023/05/28 08:02:06;;;;;;;9.85;4.10;;;;;;;;;;4765667;30;20059;-63
2023/05/28 08:04:38;;;;;;;8.52;3.90;;;;;;;;;;4768218;30;20488;-63
2023/05/28 08:07:13;;;;;;;9.30;3.83;;;;;;;;;;4786439;29;20051;-63
2023/05/28 08:09:44;;;;;;;8.73;3.88;;;;;;;;;;4819672;29;20058;-63
2023/05/28 08:12:18;;;;;;;5.85;3.55;;;;;;;;;;4837768;29;20067;-63
2023/05/28 08:14:48;;;;;;;7.47;3.63;;;;;;;;;;4806761;29;20177;-63
2023/05/28 08:17:22;;;;;;;7.63;2.97;;;;;;;;;;4783575;29;20508;-63
2023/05/28 08:19:58;;;;;;;7.03;3.03;;;;;;;;;;4783645;29;20074;-63
2023/05/28 08:22:42;;;;;;;6.22;3.13;;;;;;;;;;4801541;29;20055;-63
2023/05/28 08:25:12;;;;;;;5.85;3.42;;;;;;;;;;4801339;29;20420;-63
2023/05/28 08:27:42;;;;;;;5.38;2.70;;;;;;;;;;4801213;29;20051;-63
2023/05/28 08:30:12;;;;;;;5.15;2.92;;;;;;;;;;4795725;29;20056;-63
2023/05/28 08:33:03;;;;;;;9.95;3.10;;;;;;;;;;4753567;30;20063;-63
2023/05/28 08:35:34;;;;;;;6.32;2.70;;;;;;;;;;4797463;29;20398;-64
2023/05/28 08:38:06;;;;;;;4.30;2.35;;;;;;;;;;4803144;29;20055;-63
2023/05/28 08:40:53;;;;;;;5.32;2.83;;;;;;;;;;4786899;30;20055;-63
2023/05/28 08:43:24;;;;;;;4.55;2.33;;;;;;;;;;4786749;30;20059;-63
2023/05/28 08:45:54;;;;;;;4.60;2.13;;;;;;;;;;4769936;30;20056;-63
2023/05/28 08:48:58;;;;;;;6.32;2.75;;;;;;;;;;4767362;30;20063;-64
2023/05/28 08:51:33;;;;;;;5.15;2.80;;;;;;;;;;4750975;30;20060;-63
2023/05/28 08:54:03;;;;;;;6.95;2.15;;;;;;;;;;4726420;30;20102;-63
2023/05/28 08:56:35;;;;;;;5.32;2.80;;;;;;;;;;4748219;30;20425;-63
2023/05/28 08:59:05;;;;;;;8.23;2.50;;;;;;;;;;4751032;30;20129;-64
2023/05/28 09:01:37;;;;;;;5.90;2.33;;;;;;;;;;4783115;29;20060;-63
2023/05/28 09:04:10;;;;;;;4.07;2.33;;;;;;;;;;4804569;29;20177;-64
2023/05/28 09:06:48;;;;;;;4.93;2.60;;;;;;;;;;4804361;29;20066;-64
2023/05/28 09:09:29;;;;;;;5.07;2.53;;;;;;;;;;4822283;29;20227;-63
2023/05/28 09:12:09;;;;;;;5.70;1.95;;;;;;;;;;4812737;29;20082;-63
2023/05/28 09:14:43;;;;;;;4.78;2.13;;;;;;;;;;4821043;29;20531;-63
2023/05/28 09:17:13;;;;;;;6.38;2.20;;;;;;;;;;4822273;29;20559;-63
2023/05/28 09:19:51;;;;;;;5.20;2.63;;;;;;;;;;4816339;29;20055;-64
2023/05/28 09:22:22;;;;;;;4.65;2.45;;;;;;;;;;4804178;29;20530;-63
2023/05/28 09:25:07;;;;;;;4.70;2.00;;;;;;;;;;4840389;29;20065;-63
2023/05/28 09:27:45;;;;;;;4.13;1.88;;;;;;;;;;4858709;29;20183;-63
2023/05/28 09:30:16;;;;;;;5.95;2.22;;;;;;;;;;4858847;29;20057;-63
2023/05/28 09:32:55;;;;;;;5.85;2.40;;;;;;;;;;4794785;29;20062;-63
2023/05/28 09:35:26;;;;;;;7.22;2.53;;;;;;;;;;4822254;29;20058;-63
2023/05/28 09:38:10;;;;;;;3.42;1.52;;;;;;;;;;4807413;29;20054;-63
2023/05/28 09:40:45;;;;;;;4.18;1.85;;;;;;;;;;4871144;29;20068;-64
2023/05/28 09:43:16;;;;;;;5.72;2.10;;;;;;;;;;4855500;29;20062;-63
2023/05/28 09:45:47;;;;;;;3.45;1.77;;;;;;;;;;4855740;29;20077;-63
2023/05/28 09:48:17;;;;;;;6.30;3.03;;;;;;;;;;4877015;29;20072;-64
2023/05/28 09:50:47;;;;;;;4.78;2.15;;;;;;;;;;4861661;29;20053;-63
2023/05/28 09:53:18;;;;;;;4.75;2.38;;;;;;;;;;4861707;29;20065;-63
2023/05/28 09:55:49;;;;;;;11.13;2.30;;;;;;;;;;4904387;29;20051;-63
2023/05/28 09:58:23;;;;;;;4.22;2.17;;;;;;;;;;4977301;28;20061;-63
2023/05/28 10:00:56;;;;;;;3.55;1.70;;;;;;;;;;5041860;28;20378;-63
2023/05/28 10:03:42;;;;;;;7.05;2.25;;;;;;;;;;5033426;28;20044;-63
2023/05/28 10:06:26;;;;;;;3.63;1.83;;;;;;;;;;4991279;28;20050;-63
2023/05/28 10:08:57;;;;;;;4.00;1.98;;;;;;;;;;4991517;28;20059;-64
2023/05/28 10:11:31;;;;;;;5.43;2.50;;;;;;;;;;4943978;28;20054;-63
2023/05/28 10:14:03;;;;;;;3.97;1.75;;;;;;;;;;4991364;28;20042;-64
2023/05/28 10:16:34;;;;;;;5.75;2.45;;;;;;;;;;4991285;28;20050;-63
2023/05/28 10:19:04;;;;;;;6.32;2.30;;;;;;;;;;4991252;28;20061;-63
2023/05/28 10:21:35;;;;;;;5.90;2.97;;;;;;;;;;4943125;28;20529;-62
2023/05/28 10:24:06;;;;;;;4.18;2.15;;;;;;;;;;4990843;28;20078;-63
2023/05/28 10:26:36;;;;;;;3.90;1.83;;;;;;;;;;4974843;28;20468;-62
2023/05/28 10:29:10;;;;;;;4.28;2.03;;;;;;;;;;4991112;28;20065;-63
2023/05/28 10:32:00;;;;;;;4.72;1.75;;;;;;;;;;4989549;28;20077;-62
2023/05/28 10:34:32;;;;;;;4.63;2.65;;;;;;;;;;4990719;28;20050;-63
2023/05/28 10:37:03;;;;;;;4.45;1.95;;;;;;;;;;4999973;28;20053;-62
2023/05/28 10:39:42;;;;;;;5.13;2.60;;;;;;;;;;5010348;28;20049;-62
2023/05/28 10:42:17;;;;;;;4.65;1.92;;;;;;;;;;4961824;28;20065;-63
2023/05/28 10:45:06;;;;;;;8.07;2.65;;;;;;;;;;5030575;28;20060;-62
2023/05/28 10:47:39;;;;;;;3.55;1.73;;;;;;;;;;4997690;28;20064;-62
2023/05/28 10:50:09;;;;;;;4.80;2.28;;;;;;;;;;5013092;28;20497;-62
2023/05/28 10:53:06;;;;;;;9.15;3.55;;;;;;;;;;5032159;28;20049;-63
2023/05/28 10:55:55;;;;;;;4.20;2.13;;;;;;;;;;5029503;28;20060;-62
2023/05/28 10:58:29;;;;;;;5.95;2.65;;;;;;;;;;5029095;28;20073;-62
2023/05/28 11:01:12;;;;;;;5.38;2.67;;;;;;;;;;5029575;28;20057;-62
2023/05/28 11:03:51;;;;;;;8.10;5.35;;;;;;;;;;5029949;28;20056;-62
2023/05/28 11:06:24;;;;;;;7.97;5.20;;;;;;;;;;5029730;28;20041;-62
2023/05/28 11:09:08;;;;;;;5.18;2.22;;;;;;;;;;5028963;28;20088;-62
2023/05/28 11:11:39;;;;;;;4.65;2.22;;;;;;;;;;5029519;28;20417;-61
2023/05/28 11:14:10;;;;;;;4.80;2.70;;;;;;;;;;5029279;28;20065;-62
2023/05/28 11:16:40;;;;;;;3.70;1.38;;;;;;;;;;4996452;28;20054;-62
2023/05/28 11:19:11;;;;;;;3.50;1.58;;;;;;;;;;4980395;28;20050;-62
2023/05/28 11:21:55;;;;;;;4.40;1.80;;;;;;;;;;4980454;28;20049;-63
2023/05/28 11:24:25;;;;;;;5.68;1.70;;;;;;;;;;5012395;28;20054;-67
2023/05/28 11:26:55;;;;;;;4.20;1.83;;;;;;;;;;5013255;28;20057;-62
2023/05/28 11:29:25;;;;;;;3.38;1.38;;;;;;;;;;5013329;28;20054;-62
2023/05/28 11:31:56;;;;;;;3.50;1.30;;;;;;;;;;4956892;28;20087;-63
2023/05/28 11:34:26;;;;;;;4.80;1.55;;;;;;;;;;4954880;28;20059;-62
2023/05/28 11:36:56;;;;;;;2.83;1.40;;;;;;;;;;4986744;28;20054;-62
2023/05/28 11:39:26;;;;;;;2.67;1.30;;;;;;;;;;5009685;28;20416;-62
2023/05/28 11:41:57;;;;;;;2.70;1.55;;;;;;;;;;4961128;28;20166;-63
2023/05/28 11:44:27;;;;;;;4.30;2.00;;;;;;;;;;4961047;28;20045;-59
2023/05/28 11:46:57;;;;;;;2.65;1.15;;;;;;;;;;5009454;28;20069;-60
2023/05/28 11:49:28;;;;;;;2.72;1.30;;;;;;;;;;5009300;28;20413;-60
2023/05/28 11:51:58;;;;;;;2.53;1.20;;;;;;;;;;4984793;28;20050;-60
2023/05/28 11:54:28;;;;;;;2.58;1.40;;;;;;;;;;5009534;28;20540;-61
2023/05/28 11:57:23;;;;;;;3.25;1.20;;;;;;;;;;4983420;28;20061;-61
2023/05/28 12:00:11;;;;;;;2.60;0.88;;;;;;;;;;4969865;28;20058;-62
2023/05/28 12:02:48;;;;;;;3.20;1.02;;;;;;;;;;4970520;28;20414;-61
2023/05/28 12:05:38;;;;;;;2.30;0.88;;;;;;;;;;4970296;28;20050;-62
2023/05/28 12:08:11;;;;;;;3.80;2.00;;;;;;;;;;4970920;28;20515;-61
2023/05/28 12:10:41;;;;;;;2.67;1.23;;;;;;;;;;5031337;28;20081;-62
2023/05/28 12:13:14;;;;;;;2.42;0.70;;;;;;;;;;4983700;28;20057;-62
2023/05/28 12:15:45;;;;;;;4.07;1.40;;;;;;;;;;5032920;28;20057;-61
2023/05/28 12:18:20;;;;;;;2.17;0.77;;;;;;;;;;5032633;28;20041;-63
2023/05/28 12:21:03;;;;;;;3.25;0.80;;;;;;;;;;4998611;28;20073;-61
2023/05/28 12:23:33;;;;;;;2.67;1.17;;;;;;;;;;5032632;28;20053;-62
2023/05/28 12:26:08;;;;;;;3.05;1.13;;;;;;;;;;5032551;28;20053;-61
2023/05/28 12:28:40;;;;;;;2.08;0.93;;;;;;;;;;4999790;28;20057;-61
2023/05/28 12:31:11;;;;;;;3.83;1.45;;;;;;;;;;4985386;28;20061;-62
2023/05/28 12:33:46;;;;;;;5.60;2.40;;;;;;;;;;5015763;28;20533;-62
2023/05/28 12:36:17;;;;;;;3.85;1.63;;;;;;;;;;5056970;28;20053;-62
2023/05/28 12:38:47;;;;;;;2.83;1.40;;;;;;;;;;5039286;28;20063;-63
2023/05/28 12:41:18;;;;;;;6.80;3.33;;;;;;;;;;5057402;28;20435;-61
2023/05/28 12:43:53;;;;;;;4.88;1.65;;;;;;;;;;4972909;28;20055;-62
2023/05/28 12:46:23;;;;;;;4.57;2.10;;;;;;;;;;4941161;28;20059;-62
2023/05/28 12:48:54;;;;;;;4.72;2.42;;;;;;;;;;4910374;28;20526;-62
2023/05/28 12:51:24;;;;;;;6.30;2.00;;;;;;;;;;4973333;28;20054;-61
2023/05/28 12:53:54;;;;;;;2.35;1.00;;;;;;;;;;4957638;28;20070;-61
2023/05/28 12:56:24;;;;;;;3.72;1.80;;;;;;;;;;4957305;28;20050;-62
2023/05/28 12:58:55;;;;;;;3.13;1.27;;;;;;;;;;4957030;28;20566;-62
2023/05/28 13:01:26;;;;;;;1.73;1.00;;;;;;;;;;4973356;28;20411;-62
2023/05/28 13:03:56;;;;;;;3.10;1.30;;;;;;;;;;4973107;28;20141;-61
2023/05/28 13:06:27;;;;;;;4.28;2.15;;;;;;;;;;4973211;28;20107;-63
2023/05/28 13:08:58;;;;;;;9.77;3.85;;;;;;;;;;4998789;28;20054;-62
2023/05/28 13:11:28;;;;;;;8.50;3.28;;;;;;;;;;4995631;28;20557;-61
2023/05/28 13:13:59;;;;;;;4.50;2.20;;;;;;;;;;4995492;28;20517;-62
2023/05/28 13:16:29;;;;;;;5.38;2.53;;;;;;;;;;4976209;28;20062;-62
2023/05/28 13:19:01;;;;;;;4.82;2.25;;;;;;;;;;4992330;28;20069;-61
2023/05/28 13:21:33;;;;;;;5.20;2.80;;;;;;;;;;4991258;28;20054;-62
2023/05/28 13:24:04;;;;;;;6.95;2.40;;;;;;;;;;4992280;28;20062;-61
2023/05/28 13:26:35;;;;;;;8.90;3.28;;;;;;;;;;4992030;28;20050;-62
2023/05/28 13:29:06;;;;;;;4.82;2.75;;;;;;;;;;4988426;28;20050;-62
2023/05/28 13:31:36;;;;;;;6.47;2.20;;;;;;;;;;4972603;28;20510;-62
2023/05/28 13:34:06;;;;;;;4.53;1.80;;;;;;;;;;5004793;28;20058;-62
2023/05/28 13:36:37;;;;;;;2.47;1.33;;;;;;;;;;4972504;28;20054;-62
2023/05/28 13:39:09;;;;;;;4.22;1.30;;;;;;;;;;4922031;28;20066;-62
2023/05/28 13:41:40;;;;;;;3.85;1.65;;;;;;;;;;4952961;28;20055;-62
2023/05/28 13:44:10;;;;;;;2.17;1.00;;;;;;;;;;4917632;29;20055;-63
2023/05/28 13:46:40;;;;;;;2.92;1.85;;;;;;;;;;4936111;29;20059;-61
2023/05/28 13:49:10;;;;;;;4.13;1.80;;;;;;;;;;4952944;29;20522;-62
2023/05/28 13:51:41;;;;;;;2.97;1.10;;;;;;;;;;4953053;29;20055;-61
2023/05/28 13:54:13;;;;;;;5.93;2.35;;;;;;;;;;4922098;29;20504;-61
2023/05/28 13:56:45;;;;;;;3.17;1.60;;;;;;;;;;4936757;29;20059;-62
2023/05/28 13:59:15;;;;;;;1.77;0.93;;;;;;;;;;4942749;29;20047;-61
2023/05/28 14:01:45;;;;;;;3.08;1.52;;;;;;;;;;4933746;29;20091;-61
2023/05/28 14:04:16;;;;;;;1.70;1.13;;;;;;;;;;4921641;28;20478;-62
2023/05/28 14:06:46;;;;;;;6.07;1.90;;;;;;;;;;4972159;28;20059;-62
2023/05/28 14:09:16;;;;;;;3.28;1.30;;;;;;;;;;4988178;28;20044;-62
2023/05/28 14:11:46;;;;;;;2.35;1.98;;;;;;;;;;4971966;28;20410;-62
2023/05/28 14:14:37;;;;;;;5.45;1.60;;;;;;;;;;4971785;28;20419;-62
2023/05/28 14:17:07;;;;;;;4.57;2.08;;;;;;;;;;4998090;28;20058;-62
2023/05/28 14:19:37;;;;;;;1.88;0.98;;;;;;;;;;4994771;28;20058;-63
2023/05/28 14:22:07;;;;;;;3.63;1.50;;;;;;;;;;5049981;28;20048;-62
2023/05/28 14:24:37;;;;;;;6.90;3.60;;;;;;;;;;5072781;28;20048;-62
2023/05/28 14:27:08;;;;;;;5.65;3.03;;;;;;;;;;5038361;28;20060;-62
2023/05/28 14:29:38;;;;;;;10.02;5.38;;;;;;;;;;5072705;28;20495;-62
2023/05/28 14:32:21;;;;;;;3.45;2.05;;;;;;;;;;5034940;28;20515;-62
2023/05/28 14:34:51;;;;;;;9.20;4.63;;;;;;;;;;5072671;28;20051;-62
2023/05/28 14:37:22;;;;;;;5.00;2.33;;;;;;;;;;5014612;28;20060;-61
2023/05/28 14:39:52;;;;;;;1.80;0.95;;;;;;;;;;5017466;28;20049;-62
2023/05/28 14:42:22;;;;;;;4.25;2.05;;;;;;;;;;5050343;28;20404;-61
2023/05/28 14:44:52;;;;;;;5.70;2.22;;;;;;;;;;5052359;28;20052;-62
2023/05/28 14:47:22;;;;;;;3.88;0.85;;;;;;;;;;5052282;28;20398;-62
2023/05/28 14:49:53;;;;;;;2.38;1.35;;;;;;;;;;5052184;28;20060;-62
2023/05/28 14:52:30;;;;;;;4.20;1.73;;;;;;;;;;5052338;28;20040;-62
2023/05/28 14:55:00;;;;;;;3.00;1.50;;;;;;;;;;5052043;28;20048;-62
2023/05/28 14:57:32;;;;;;;4.65;2.17;;;;;;;;;;5051244;28;20071;-61
2023/05/28 15:00:06;;;;;;;5.00;1.42;;;;;;;;;;5017151;28;20534;-62
2023/05/28 15:02:38;;;;;;;2.38;1.13;;;;;;;;;;5033852;28;20086;-62
2023/05/28 15:05:12;;;;;;;5.07;1.45;;;;;;;;;;5016830;28;20049;-62
2023/05/28 15:07:42;;;;;;;3.45;1.65;;;;;;;;;;5052326;28;20045;-62
2023/05/28 15:10:11;;;;;;;2.85;1.40;;;;;;;;;;5016786;28;20085;-62
2023/05/28 15:12:45;;;;;;;3.53;1.52;;;;;;;;;;5017612;28;20563;-61